sensor_id;sensor_type;location;lat;lon;timestamp;temperature;humidity
38784;DHT22;24531;45.502;12.238;2023-10-09T00:00:13;22.70;98.70
38784;DHT22;24531;45.502;12.238;2023-10-09T00:02:57;22.70;98.60
38784;DHT22;24531;45.502;12.238;2023-10-09T00:05:26;22.80;98.60
38784;DHT22;24531;45.502;12.238;2023-10-09T00:08:05;22.60;98.60
38784;DHT22;24531;45.502;12.238;2023-10-09T00:10:31;22.60;98.80
38784;DHT22;24531;45.502;12.238;2023-10-09T00:13:13;22.50;98.80
38784;DHT22;24531;45.502;12.238;2023-10-09T00:15:39;22.60;98.90
38784;DHT22;24531;45.502;12.238;2023-10-09T00:18:06;22.50;98.80
38784;DHT22;24531;45.502;12.238;2023-10-09T00:20:40;22.50;98.90
38784;DHT22;24531;45.502;12.238;2023-10-09T00:23:09;22.50;99.00
38784;DHT22;24531;45.502;12.238;2023-10-09T00:25:48;22.50;99.00
38784;DHT22;24531;45.502;12.238;2023-10-09T00:28:30;22.50;98.90
38784;DHT22;24531;45.502;12.238;2023-10-09T00:30:56;22.50;98.70
38784;DHT22;24531;45.502;12.238;2023-10-09T00:33:21;22.50;98.80
38784;DHT22;24531;45.502;12.238;2023-10-09T00:35:48;22.50;98.80
38784;DHT22;24531;45.502;12.238;2023-10-09T00:38:20;22.50;98.80
38784;DHT22;24531;45.502;12.238;2023-10-09T00:40:46;22.50;98.70
38784;DHT22;24531;45.502;12.238;2023-10-09T00:43:13;22.40;98.80
38784;DHT22;24531;45.502;12.238;2023-10-09T00:45:40;22.40;98.90
38784;DHT22;24531;45.502;12.238;2023-10-09T00:48:07;22.30;99.30
38784;DHT22;24531;45.502;12.238;2023-10-09T00:50:34;22.30;99.10
38784;DHT22;24531;45.502;12.238;2023-10-09T00:53:05;22.40;99.10
38784;DHT22;24531;45.502;12.238;2023-10-09T00:55:38;22.30;99.10
38784;DHT22;24531;45.502;12.238;2023-10-09T00:58:14;22.30;99.00
38784;DHT22;24531;45.502;12.238;2023-10-09T01:00:45;22.30;99.10
38784;DHT22;24531;45.502;12.238;2023-10-09T01:03:16;22.30;99.10
38784;DHT22;24531;45.502;12.238;2023-10-09T01:05:57;22.20;99.00
38784;DHT22;24531;45.502;12.238;2023-10-09T01:08:24;22.20;99.30
38784;DHT22;24531;45.502;12.238;2023-10-09T01:11:11;22.10;99.30
38784;DHT22;24531;45.502;12.238;2023-10-09T01:13:45;22.10;99.40
38784;DHT22;24531;45.502;12.238;2023-10-09T01:16:15;22.10;99.40
38784;DHT22;24531;45.502;12.238;2023-10-09T01:21:09;22.20;99.30
38784;DHT22;24531;45.502;12.238;2023-10-09T01:23:42;22.20;99.30
38784;DHT22;24531;45.502;12.238;2023-10-09T01:26:26;22.20;99.30
38784;DHT22;24531;45.502;12.238;2023-10-09T01:28:52;22.20;99.30
38784;DHT22;24531;45.502;12.238;2023-10-09T01:31:24;22.20;99.40
38784;DHT22;24531;45.502;12.238;2023-10-09T01:33:51;22.20;99.30
38784;DHT22;24531;45.502;12.238;2023-10-09T01:36:19;22.10;99.30
38784;DHT22;24531;45.502;12.238;2023-10-09T01:39:00;22.20;99.30
38784;DHT22;24531;45.502;12.238;2023-10-09T01:41:33;22.20;99.40
38784;DHT22;24531;45.502;12.238;2023-10-09T01:43:59;22.20;99.30
38784;DHT22;24531;45.502;12.238;2023-10-09T01:46:32;22.20;99.20
38784;DHT22;24531;45.502;12.238;2023-10-09T01:48:59;22.10;99.20
38784;DHT22;24531;45.502;12.238;2023-10-09T01:51:33;22.10;99.20
38784;DHT22;24531;45.502;12.238;2023-10-09T01:54:02;22.10;99.30
38784;DHT22;24531;45.502;12.238;2023-10-09T01:56:28;22.10;99.30
38784;DHT22;24531;45.502;12.238;2023-10-09T01:58:53;22.10;99.30
38784;DHT22;24531;45.502;12.238;2023-10-09T02:01:23;22.20;99.30
38784;DHT22;24531;45.502;12.238;2023-10-09T02:03:49;22.20;99.30
38784;DHT22;24531;45.502;12.238;2023-10-09T02:06:17;22.20;99.30
38784;DHT22;24531;45.502;12.238;2023-10-09T02:08:54;22.10;99.30
38784;DHT22;24531;45.502;12.238;2023-10-09T02:11:21;22.10;99.30
38784;DHT22;24531;45.502;12.238;2023-10-09T02:14:04;22.00;99.30
38784;DHT22;24531;45.502;12.238;2023-10-09T02:16:41;22.00;99.40
38784;DHT22;24531;45.502;12.238;2023-10-09T02:19:07;22.00;99.40
38784;DHT22;24531;45.502;12.238;2023-10-09T02:21:54;22.00;99.40
38784;DHT22;24531;45.502;12.238;2023-10-09T02:24:23;22.00;99.40
38784;DHT22;24531;45.502;12.238;2023-10-09T02:27:18;21.90;99.50
38784;DHT22;24531;45.502;12.238;2023-10-09T02:30:06;21.90;99.50
38784;DHT22;24531;45.502;12.238;2023-10-09T02:32:43;21.90;99.50
38784;DHT22;24531;45.502;12.238;2023-10-09T02:35:12;21.90;99.50
38784;DHT22;24531;45.502;12.238;2023-10-09T02:37:54;21.90;99.60
38784;DHT22;24531;45.502;12.238;2023-10-09T02:40:19;22.00;99.60
38784;DHT22;24531;45.502;12.238;2023-10-09T02:42:51;21.90;99.70
38784;DHT22;24531;45.502;12.238;2023-10-09T02:45:16;21.90;99.60
38784;DHT22;24531;45.502;12.238;2023-10-09T02:47:44;22.00;99.60
38784;DHT22;24531;45.502;12.238;2023-10-09T02:50:14;21.90;99.50
38784;DHT22;24531;45.502;12.238;2023-10-09T02:52:47;21.90;99.50
38784;DHT22;24531;45.502;12.238;2023-10-09T02:55:15;21.80;99.60
38784;DHT22;24531;45.502;12.238;2023-10-09T02:57:53;21.80;99.70
38784;DHT22;24531;45.502;12.238;2023-10-09T03:00:31;21.80;99.70
38784;DHT22;24531;45.502;12.238;2023-10-09T03:02:58;21.70;99.70
38784;DHT22;24531;45.502;12.238;2023-10-09T03:05:27;21.70;99.80
38784;DHT22;24531;45.502;12.238;2023-10-09T03:07:54;21.60;99.90
38784;DHT22;24531;45.502;12.238;2023-10-09T03:10:22;21.70;99.90
38784;DHT22;24531;45.502;12.238;2023-10-09T03:12:48;21.70;99.90
38784;DHT22;24531;45.502;12.238;2023-10-09T03:15:21;21.70;99.90
38784;DHT22;24531;45.502;12.238;2023-10-09T03:17:48;21.70;99.90
38784;DHT22;24531;45.502;12.238;2023-10-09T03:20:14;21.70;99.90
38784;DHT22;24531;45.502;12.238;2023-10-09T03:22:44;21.70;99.90
38784;DHT22;24531;45.502;12.238;2023-10-09T03:25:11;21.70;99.80
38784;DHT22;24531;45.502;12.238;2023-10-09T03:27:43;21.70;99.90
38784;DHT22;24531;45.502;12.238;2023-10-09T03:30:16;21.80;99.90
38784;DHT22;24531;45.502;12.238;2023-10-09T03:32:52;21.70;99.80
38784;DHT22;24531;45.502;12.238;2023-10-09T03:35:22;21.60;99.90
38784;DHT22;24531;45.502;12.238;2023-10-09T03:37:55;21.70;99.90
38784;DHT22;24531;45.502;12.238;2023-10-09T03:40:23;21.60;99.90
38784;DHT22;24531;45.502;12.238;2023-10-09T03:42:49;21.60;99.90
38784;DHT22;24531;45.502;12.238;2023-10-09T03:45:15;21.60;99.90
38784;DHT22;24531;45.502;12.238;2023-10-09T03:47:55;21.70;99.90
38784;DHT22;24531;45.502;12.238;2023-10-09T03:50:28;21.60;99.90
38784;DHT22;24531;45.502;12.238;2023-10-09T03:53:02;21.70;99.90
38784;DHT22;24531;45.502;12.238;2023-10-09T03:55:28;21.60;99.90
38784;DHT22;24531;45.502;12.238;2023-10-09T03:57:56;21.60;99.90
38784;DHT22;24531;45.502;12.238;2023-10-09T04:00:23;21.60;99.90
38784;DHT22;24531;45.502;12.238;2023-10-09T04:02:54;21.60;99.90
38784;DHT22;24531;45.502;12.238;2023-10-09T04:05:20;21.60;99.90
38784;DHT22;24531;45.502;12.238;2023-10-09T04:07:45;21.60;99.90
38784;DHT22;24531;45.502;12.238;2023-10-09T04:10:11;21.60;99.90
38784;DHT22;24531;45.502;12.238;2023-10-09T04:12:59;21.60;99.80
38784;DHT22;24531;45.502;12.238;2023-10-09T04:15:26;21.60;99.80
38784;DHT22;24531;45.502;12.238;2023-10-09T04:17:55;21.50;99.80
38784;DHT22;24531;45.502;12.238;2023-10-09T04:20:22;21.50;99.80
38784;DHT22;24531;45.502;12.238;2023-10-09T04:22:47;21.50;99.80
38784;DHT22;24531;45.502;12.238;2023-10-09T04:25:17;21.50;99.80
38784;DHT22;24531;45.502;12.238;2023-10-09T04:27:54;21.50;99.80
38784;DHT22;24531;45.502;12.238;2023-10-09T04:30:35;21.50;99.80
38784;DHT22;24531;45.502;12.238;2023-10-09T04:33:08;21.40;99.70
38784;DHT22;24531;45.502;12.238;2023-10-09T04:36:03;21.40;99.80
38784;DHT22;24531;45.502;12.238;2023-10-09T04:38:44;21.40;99.80
38784;DHT22;24531;45.502;12.238;2023-10-09T04:41:28;21.40;99.70
38784;DHT22;24531;45.502;12.238;2023-10-09T04:43:58;21.40;99.70
38784;DHT22;24531;45.502;12.238;2023-10-09T04:46:45;21.40;99.70
38784;DHT22;24531;45.502;12.238;2023-10-09T04:49:31;21.30;99.60
38784;DHT22;24531;45.502;12.238;2023-10-09T04:52:11;21.40;99.70
38784;DHT22;24531;45.502;12.238;2023-10-09T04:54:45;21.30;99.70
38784;DHT22;24531;45.502;12.238;2023-10-09T04:57:29;21.30;99.90
38784;DHT22;24531;45.502;12.238;2023-10-09T05:00:06;21.30;99.60
38784;DHT22;24531;45.502;12.238;2023-10-09T05:02:48;21.20;99.70
38784;DHT22;24531;45.502;12.238;2023-10-09T05:05:23;21.20;99.80
38784;DHT22;24531;45.502;12.238;2023-10-09T05:08:11;21.20;99.80
38784;DHT22;24531;45.502;12.238;2023-10-09T05:10:55;21.30;99.70
38784;DHT22;24531;45.502;12.238;2023-10-09T05:13:24;21.20;99.70
38784;DHT22;24531;45.502;12.238;2023-10-09T05:16:12;21.20;99.70
38784;DHT22;24531;45.502;12.238;2023-10-09T05:18:51;21.20;99.80
38784;DHT22;24531;45.502;12.238;2023-10-09T05:21:49;21.20;99.70
38784;DHT22;24531;45.502;12.238;2023-10-09T05:24:14;21.10;99.70
38784;DHT22;24531;45.502;12.238;2023-10-09T05:26:45;21.10;99.90
38784;DHT22;24531;45.502;12.238;2023-10-09T05:29:23;21.10;99.70
38784;DHT22;24531;45.502;12.238;2023-10-09T05:32:03;21.00;99.80
38784;DHT22;24531;45.502;12.238;2023-10-09T05:34:34;21.00;99.80
38784;DHT22;24531;45.502;12.238;2023-10-09T05:37:03;21.00;99.90
38784;DHT22;24531;45.502;12.238;2023-10-09T05:40:06;21.00;99.90
38784;DHT22;24531;45.502;12.238;2023-10-09T05:42:44;21.00;99.90
38784;DHT22;24531;45.502;12.238;2023-10-09T05:47:44;21.00;99.90
38784;DHT22;24531;45.502;12.238;2023-10-09T05:50:28;20.90;99.90
38784;DHT22;24531;45.502;12.238;2023-10-09T05:52:55;20.90;99.90
38784;DHT22;24531;45.502;12.238;2023-10-09T05:55:24;20.90;99.90
38784;DHT22;24531;45.502;12.238;2023-10-09T05:57:54;20.90;99.90
38784;DHT22;24531;45.502;12.238;2023-10-09T06:00:23;21.00;99.90
38784;DHT22;24531;45.502;12.238;2023-10-09T06:03:07;21.00;99.90
38784;DHT22;24531;45.502;12.238;2023-10-09T06:05:52;21.00;99.90
38784;DHT22;24531;45.502;12.238;2023-10-09T06:08:25;21.10;99.90
38784;DHT22;24531;45.502;12.238;2023-10-09T06:10:53;21.10;99.90
38784;DHT22;24531;45.502;12.238;2023-10-09T06:13:37;21.10;99.90
38784;DHT22;24531;45.502;12.238;2023-10-09T06:16:04;21.20;99.90
38784;DHT22;24531;45.502;12.238;2023-10-09T06:18:46;21.20;99.90
38784;DHT22;24531;45.502;12.238;2023-10-09T06:21:21;21.20;99.90
38784;DHT22;24531;45.502;12.238;2023-10-09T06:24:08;21.30;99.90
38784;DHT22;24531;45.502;12.238;2023-10-09T06:26:41;21.30;99.90
38784;DHT22;24531;45.502;12.238;2023-10-09T06:29:18;21.40;99.90
38784;DHT22;24531;45.502;12.238;2023-10-09T06:32:04;21.40;99.90
38784;DHT22;24531;45.502;12.238;2023-10-09T06:34:51;21.40;99.90
38784;DHT22;24531;45.502;12.238;2023-10-09T06:37:20;21.50;99.90
38784;DHT22;24531;45.502;12.238;2023-10-09T06:39:52;21.50;99.90
38784;DHT22;24531;45.502;12.238;2023-10-09T06:42:21;21.60;99.90
38784;DHT22;24531;45.502;12.238;2023-10-09T06:45:03;21.70;99.90
38784;DHT22;24531;45.502;12.238;2023-10-09T06:47:31;21.80;99.90
38784;DHT22;24531;45.502;12.238;2023-10-09T06:50:10;21.80;99.90
38784;DHT22;24531;45.502;12.238;2023-10-09T06:52:48;21.90;99.90
38784;DHT22;24531;45.502;12.238;2023-10-09T06:55:26;22.00;99.90
38784;DHT22;24531;45.502;12.238;2023-10-09T06:58:22;22.10;99.90
38784;DHT22;24531;45.502;12.238;2023-10-09T07:00:55;22.30;99.90
38784;DHT22;24531;45.502;12.238;2023-10-09T07:03:29;22.40;99.90
38784;DHT22;24531;45.502;12.238;2023-10-09T07:06:11;22.60;99.90
38784;DHT22;24531;45.502;12.238;2023-10-09T07:08:55;22.80;99.90
38784;DHT22;24531;45.502;12.238;2023-10-09T07:11:43;23.10;99.80
38784;DHT22;24531;45.502;12.238;2023-10-09T07:14:12;23.50;99.60
38784;DHT22;24531;45.502;12.238;2023-10-09T07:19:31;24.10;98.90
38784;DHT22;24531;45.502;12.238;2023-10-09T07:22:01;24.50;98.70
38784;DHT22;24531;45.502;12.238;2023-10-09T07:24:32;24.70;98.40
38784;DHT22;24531;45.502;12.238;2023-10-09T07:27:09;25.10;98.00
38784;DHT22;24531;45.502;12.238;2023-10-09T07:29:36;25.40;97.70
38784;DHT22;24531;45.502;12.238;2023-10-09T07:32:14;25.60;97.30
38784;DHT22;24531;45.502;12.238;2023-10-09T07:34:46;25.90;97.00
38784;DHT22;24531;45.502;12.238;2023-10-09T07:37:27;26.10;96.80
38784;DHT22;24531;45.502;12.238;2023-10-09T07:39:59;26.50;96.40
38784;DHT22;24531;45.502;12.238;2023-10-09T07:42:32;26.80;96.20
38784;DHT22;24531;45.502;12.238;2023-10-09T07:45:07;27.10;95.60
38784;DHT22;24531;45.502;12.238;2023-10-09T07:47:49;27.30;95.40
38784;DHT22;24531;45.502;12.238;2023-10-09T07:50:35;27.60;95.00
38784;DHT22;24531;45.502;12.238;2023-10-09T07:53:16;27.90;94.60
38784;DHT22;24531;45.502;12.238;2023-10-09T07:56:05;28.20;94.40
38784;DHT22;24531;45.502;12.238;2023-10-09T07:58:34;28.50;94.20
38784;DHT22;24531;45.502;12.238;2023-10-09T08:01:12;28.80;93.50
38784;DHT22;24531;45.502;12.238;2023-10-09T08:03:50;29.20;93.20
38784;DHT22;24531;45.502;12.238;2023-10-09T08:06:45;29.50;93.00
38784;DHT22;24531;45.502;12.238;2023-10-09T08:09:12;29.90;92.30
38784;DHT22;24531;45.502;12.238;2023-10-09T08:11:42;30.20;91.90
38784;DHT22;24531;45.502;12.238;2023-10-09T08:14:14;30.50;91.50
38784;DHT22;24531;45.502;12.238;2023-10-09T08:16:59;30.80;91.00
38784;DHT22;24531;45.502;12.238;2023-10-09T08:19:50;31.00;90.70
38784;DHT22;24531;45.502;12.238;2023-10-09T08:22:27;31.30;90.20
38784;DHT22;24531;45.502;12.238;2023-10-09T08:24:53;31.60;89.50
38784;DHT22;24531;45.502;12.238;2023-10-09T08:27:27;31.90;88.90
38784;DHT22;24531;45.502;12.238;2023-10-09T08:30:02;32.20;87.70
38784;DHT22;24531;45.502;12.238;2023-10-09T08:32:50;32.30;86.60
38784;DHT22;24531;45.502;12.238;2023-10-09T08:35:28;32.60;86.30
38784;DHT22;24531;45.502;12.238;2023-10-09T08:38:11;32.90;85.30
38784;DHT22;24531;45.502;12.238;2023-10-09T08:40:38;33.20;84.40
38784;DHT22;24531;45.502;12.238;2023-10-09T08:43:16;33.60;83.40
38784;DHT22;24531;45.502;12.238;2023-10-09T08:46:03;33.80;82.20
38784;DHT22;24531;45.502;12.238;2023-10-09T08:48:30;34.00;81.20
38784;DHT22;24531;45.502;12.238;2023-10-09T08:50:56;34.20;80.60
38784;DHT22;24531;45.502;12.238;2023-10-09T08:53:23;34.40;79.50
38784;DHT22;24531;45.502;12.238;2023-10-09T08:55:49;34.70;78.70
38784;DHT22;24531;45.502;12.238;2023-10-09T08:58:17;34.80;77.90
38784;DHT22;24531;45.502;12.238;2023-10-09T09:01:02;34.60;77.70
38784;DHT22;24531;45.502;12.238;2023-10-09T09:03:38;34.10;77.90
38784;DHT22;24531;45.502;12.238;2023-10-09T09:06:04;33.80;77.40
38784;DHT22;24531;45.502;12.238;2023-10-09T09:08:33;33.70;77.40
38784;DHT22;24531;45.502;12.238;2023-10-09T09:11:03;33.90;76.80
38784;DHT22;24531;45.502;12.238;2023-10-09T09:19:01;33.70;77.10
38784;DHT22;24531;45.502;12.238;2023-10-09T09:21:35;33.70;76.90
38784;DHT22;24531;45.502;12.238;2023-10-09T09:24:07;33.90;76.50
38784;DHT22;24531;45.502;12.238;2023-10-09T09:26:49;33.90;76.10
38784;DHT22;24531;45.502;12.238;2023-10-09T09:32:07;33.90;76.10
38784;DHT22;24531;45.502;12.238;2023-10-09T09:37:32;34.20;76.70
38784;DHT22;24531;45.502;12.238;2023-10-09T09:40:12;34.10;76.10
38784;DHT22;24531;45.502;12.238;2023-10-09T09:43:00;33.80;76.90
38784;DHT22;24531;45.502;12.238;2023-10-09T09:45:37;34.10;76.20
38784;DHT22;24531;45.502;12.238;2023-10-09T09:48:04;34.60;75.30
38784;DHT22;24531;45.502;12.238;2023-10-09T09:50:36;35.00;74.30
38784;DHT22;24531;45.502;12.238;2023-10-09T09:53:09;35.30;73.10
38784;DHT22;24531;45.502;12.238;2023-10-09T09:55:38;35.30;72.40
38784;DHT22;24531;45.502;12.238;2023-10-09T09:58:09;35.20;72.50
38784;DHT22;24531;45.502;12.238;2023-10-09T10:00:44;34.80;72.70
38784;DHT22;24531;45.502;12.238;2023-10-09T10:03:18;34.60;72.90
38784;DHT22;24531;45.502;12.238;2023-10-09T10:05:46;34.40;72.10
38784;DHT22;24531;45.502;12.238;2023-10-09T10:08:20;33.70;73.00
38784;DHT22;24531;45.502;12.238;2023-10-09T10:10:49;33.10;74.30
38784;DHT22;24531;45.502;12.238;2023-10-09T10:16:10;33.10;75.80
38784;DHT22;24531;45.502;12.238;2023-10-09T10:18:59;33.30;75.40
38784;DHT22;24531;45.502;12.238;2023-10-09T10:21:37;33.20;75.60
38784;DHT22;24531;45.502;12.238;2023-10-09T10:32:58;31.80;77.90
38784;DHT22;24531;45.502;12.238;2023-10-09T10:35:24;31.50;78.40
38784;DHT22;24531;45.502;12.238;2023-10-09T10:38:24;31.30;78.70
38784;DHT22;24531;45.502;12.238;2023-10-09T10:40:50;31.10;79.50
38784;DHT22;24531;45.502;12.238;2023-10-09T10:43:26;30.90;79.70
38784;DHT22;24531;45.502;12.238;2023-10-09T10:46:13;30.80;80.20
38784;DHT22;24531;45.502;12.238;2023-10-09T10:48:42;30.70;80.80
38784;DHT22;24531;45.502;12.238;2023-10-09T10:51:13;30.60;81.40
38784;DHT22;24531;45.502;12.238;2023-10-09T10:53:53;30.60;81.70
38784;DHT22;24531;45.502;12.238;2023-10-09T10:56:25;30.40;82.10
38784;DHT22;24531;45.502;12.238;2023-10-09T10:59:01;30.40;82.30
38784;DHT22;24531;45.502;12.238;2023-10-09T11:01:33;30.20;82.50
38784;DHT22;24531;45.502;12.238;2023-10-09T11:04:23;30.20;83.00
38784;DHT22;24531;45.502;12.238;2023-10-09T11:06:56;30.10;83.10
38784;DHT22;24531;45.502;12.238;2023-10-09T11:09:44;30.00;83.40
38784;DHT22;24531;45.502;12.238;2023-10-09T11:12:28;29.90;83.60
38784;DHT22;24531;45.502;12.238;2023-10-09T11:15:13;29.80;84.00
38784;DHT22;24531;45.502;12.238;2023-10-09T11:18:06;29.80;84.30
38784;DHT22;24531;45.502;12.238;2023-10-09T11:20:43;29.80;84.70
38784;DHT22;24531;45.502;12.238;2023-10-09T11:23:22;29.80;84.90
38784;DHT22;24531;45.502;12.238;2023-10-09T11:26:14;29.60;85.20
38784;DHT22;24531;45.502;12.238;2023-10-09T11:29:05;29.60;85.40
38784;DHT22;24531;45.502;12.238;2023-10-09T11:31:39;29.40;85.80
38784;DHT22;24531;45.502;12.238;2023-10-09T11:34:18;29.30;85.90
38784;DHT22;24531;45.502;12.238;2023-10-09T11:37:14;29.30;86.60
38784;DHT22;24531;45.502;12.238;2023-10-09T11:39:57;29.30;86.50
38784;DHT22;24531;45.502;12.238;2023-10-09T11:42:24;29.30;86.40
38784;DHT22;24531;45.502;12.238;2023-10-09T11:45:21;29.20;86.40
38784;DHT22;24531;45.502;12.238;2023-10-09T11:47:50;29.10;87.20
38784;DHT22;24531;45.502;12.238;2023-10-09T11:50:40;29.10;88.20
38784;DHT22;24531;45.502;12.238;2023-10-09T11:53:10;29.10;87.60
38784;DHT22;24531;45.502;12.238;2023-10-09T11:55:48;29.10;87.60
38784;DHT22;24531;45.502;12.238;2023-10-09T11:58:17;29.00;87.70
38784;DHT22;24531;45.502;12.238;2023-10-09T12:00:58;29.00;88.00
38784;DHT22;24531;45.502;12.238;2023-10-09T12:03:27;29.00;88.50
38784;DHT22;24531;45.502;12.238;2023-10-09T12:05:57;29.00;88.40
38784;DHT22;24531;45.502;12.238;2023-10-09T12:08:24;29.00;88.40
38784;DHT22;24531;45.502;12.238;2023-10-09T12:10:55;29.00;88.60
38784;DHT22;24531;45.502;12.238;2023-10-09T12:13:24;28.90;89.40
38784;DHT22;24531;45.502;12.238;2023-10-09T12:15:53;28.80;88.80
38784;DHT22;24531;45.502;12.238;2023-10-09T12:18:23;28.70;88.90
38784;DHT22;24531;45.502;12.238;2023-10-09T12:20:50;28.70;89.20
38784;DHT22;24531;45.502;12.238;2023-10-09T12:23:22;28.60;89.40
38784;DHT22;24531;45.502;12.238;2023-10-09T12:25:49;28.50;89.90
38784;DHT22;24531;45.502;12.238;2023-10-09T12:28:15;28.50;90.10
38784;DHT22;24531;45.502;12.238;2023-10-09T12:30:46;28.50;90.10
38784;DHT22;24531;45.502;12.238;2023-10-09T12:33:19;28.60;90.20
38784;DHT22;24531;45.502;12.238;2023-10-09T12:35:45;28.60;90.20
38784;DHT22;24531;45.502;12.238;2023-10-09T12:38:13;28.50;90.20
38784;DHT22;24531;45.502;12.238;2023-10-09T12:40:44;28.50;90.70
38784;DHT22;24531;45.502;12.238;2023-10-09T12:43:19;28.50;90.70
38784;DHT22;24531;45.502;12.238;2023-10-09T12:45:46;28.60;90.40
38784;DHT22;24531;45.502;12.238;2023-10-09T12:48:12;28.60;90.40
38784;DHT22;24531;45.502;12.238;2023-10-09T12:50:39;28.60;90.50
38784;DHT22;24531;45.502;12.238;2023-10-09T12:53:10;28.50;90.50
38784;DHT22;24531;45.502;12.238;2023-10-09T12:58:11;28.60;90.40
38784;DHT22;24531;45.502;12.238;2023-10-09T13:00:41;28.60;90.30
38784;DHT22;24531;45.502;12.238;2023-10-09T13:03:14;28.60;90.70
38784;DHT22;24531;45.502;12.238;2023-10-09T13:05:48;28.60;90.40
38784;DHT22;24531;45.502;12.238;2023-10-09T13:08:27;28.50;90.50
38784;DHT22;24531;45.502;12.238;2023-10-09T13:11:01;28.50;90.50
38784;DHT22;24531;45.502;12.238;2023-10-09T13:13:29;28.50;90.60
38784;DHT22;24531;45.502;12.238;2023-10-09T13:16:20;28.50;90.60
38784;DHT22;24531;45.502;12.238;2023-10-09T13:18:53;28.40;90.80
38784;DHT22;24531;45.502;12.238;2023-10-09T13:21:27;28.30;91.00
38784;DHT22;24531;45.502;12.238;2023-10-09T13:23:57;28.30;91.10
38784;DHT22;24531;45.502;12.238;2023-10-09T13:26:24;28.40;91.10
38784;DHT22;24531;45.502;12.238;2023-10-09T13:28:54;28.40;91.10
38784;DHT22;24531;45.502;12.238;2023-10-09T13:31:21;28.40;91.20
38784;DHT22;24531;45.502;12.238;2023-10-09T13:33:47;28.30;91.20
38784;DHT22;24531;45.502;12.238;2023-10-09T13:36:14;28.30;91.30
38784;DHT22;24531;45.502;12.238;2023-10-09T13:38:55;28.30;91.30
38784;DHT22;24531;45.502;12.238;2023-10-09T13:41:22;28.30;91.40
38784;DHT22;24531;45.502;12.238;2023-10-09T13:43:51;28.30;91.40
38784;DHT22;24531;45.502;12.238;2023-10-09T13:46:17;28.30;91.30
38784;DHT22;24531;45.502;12.238;2023-10-09T13:48:44;28.30;91.40
38784;DHT22;24531;45.502;12.238;2023-10-09T13:51:12;28.20;91.50
38784;DHT22;24531;45.502;12.238;2023-10-09T13:53:48;28.20;91.70
38784;DHT22;24531;45.502;12.238;2023-10-09T13:56:14;28.30;91.80
38784;DHT22;24531;45.502;12.238;2023-10-09T13:58:44;28.30;91.80
38784;DHT22;24531;45.502;12.238;2023-10-09T14:01:10;28.30;91.80
38784;DHT22;24531;45.502;12.238;2023-10-09T14:03:36;28.30;91.70
38784;DHT22;24531;45.502;12.238;2023-10-09T14:06:05;28.20;91.60
38784;DHT22;24531;45.502;12.238;2023-10-09T14:08:38;28.10;91.60
38784;DHT22;24531;45.502;12.238;2023-10-09T14:11:08;28.00;91.80
38784;DHT22;24531;45.502;12.238;2023-10-09T14:13:41;28.10;91.70
38784;DHT22;24531;45.502;12.238;2023-10-09T14:16:08;28.10;91.70
38784;DHT22;24531;45.502;12.238;2023-10-09T14:18:50;28.10;91.70
38784;DHT22;24531;45.502;12.238;2023-10-09T14:21:19;28.10;91.70
38784;DHT22;24531;45.502;12.238;2023-10-09T14:23:45;28.10;91.80
38784;DHT22;24531;45.502;12.238;2023-10-09T14:26:14;28.00;91.90
38784;DHT22;24531;45.502;12.238;2023-10-09T14:28:40;28.10;92.00
38784;DHT22;24531;45.502;12.238;2023-10-09T14:31:08;28.00;91.90
38784;DHT22;24531;45.502;12.238;2023-10-09T14:33:37;28.10;91.90
38784;DHT22;24531;45.502;12.238;2023-10-09T14:36:04;28.10;91.90
38784;DHT22;24531;45.502;12.238;2023-10-09T14:38:31;28.10;91.90
38784;DHT22;24531;45.502;12.238;2023-10-09T14:40:58;28.00;91.80
38784;DHT22;24531;45.502;12.238;2023-10-09T14:43:25;28.00;92.00
38784;DHT22;24531;45.502;12.238;2023-10-09T14:45:54;27.90;92.10
38784;DHT22;24531;45.502;12.238;2023-10-09T14:48:20;27.90;92.10
38784;DHT22;24531;45.502;12.238;2023-10-09T14:50:53;27.90;92.10
38784;DHT22;24531;45.502;12.238;2023-10-09T14:53:19;27.80;92.20
38784;DHT22;24531;45.502;12.238;2023-10-09T14:55:58;27.70;92.20
38784;DHT22;24531;45.502;12.238;2023-10-09T14:58:27;27.60;92.40
38784;DHT22;24531;45.502;12.238;2023-10-09T15:00:55;27.60;92.50
38784;DHT22;24531;45.502;12.238;2023-10-09T15:03:21;27.60;92.50
38784;DHT22;24531;45.502;12.238;2023-10-09T15:05:47;27.50;92.60
38784;DHT22;24531;45.502;12.238;2023-10-09T15:08:13;27.40;92.80
38784;DHT22;24531;45.502;12.238;2023-10-09T15:10:49;27.40;92.90
38784;DHT22;24531;45.502;12.238;2023-10-09T15:13:17;27.40;93.00
38784;DHT22;24531;45.502;12.238;2023-10-09T15:15:46;27.30;93.00
38784;DHT22;24531;45.502;12.238;2023-10-09T15:18:16;27.30;93.20
38784;DHT22;24531;45.502;12.238;2023-10-09T15:20:44;27.30;93.60
38784;DHT22;24531;45.502;12.238;2023-10-09T15:23:10;27.30;93.40
38784;DHT22;24531;45.502;12.238;2023-10-09T15:25:36;27.20;93.50
38784;DHT22;24531;45.502;12.238;2023-10-09T15:28:05;27.20;93.70
38784;DHT22;24531;45.502;12.238;2023-10-09T15:30:33;27.20;93.70
38784;DHT22;24531;45.502;12.238;2023-10-09T15:32:59;27.10;93.80
38784;DHT22;24531;45.502;12.238;2023-10-09T15:35:24;27.10;93.90
38784;DHT22;24531;45.502;12.238;2023-10-09T15:37:54;27.00;94.00
38784;DHT22;24531;45.502;12.238;2023-10-09T15:40:19;27.00;94.10
38784;DHT22;24531;45.502;12.238;2023-10-09T15:42:50;26.90;94.10
38784;DHT22;24531;45.502;12.238;2023-10-09T15:45:16;26.90;94.30
38784;DHT22;24531;45.502;12.238;2023-10-09T15:47:42;26.90;94.40
38784;DHT22;24531;45.502;12.238;2023-10-09T15:50:12;26.90;94.40
38784;DHT22;24531;45.502;12.238;2023-10-09T15:52:40;26.80;94.50
38784;DHT22;24531;45.502;12.238;2023-10-09T15:55:06;26.80;94.60
38784;DHT22;24531;45.502;12.238;2023-10-09T15:57:42;26.80;94.70
38784;DHT22;24531;45.502;12.238;2023-10-09T16:00:08;26.70;94.90
38784;DHT22;24531;45.502;12.238;2023-10-09T16:02:47;26.70;95.00
38784;DHT22;24531;45.502;12.238;2023-10-09T16:05:12;26.60;95.00
38784;DHT22;24531;45.502;12.238;2023-10-09T16:07:39;26.60;95.10
38784;DHT22;24531;45.502;12.238;2023-10-09T16:10:06;26.70;95.30
38784;DHT22;24531;45.502;12.238;2023-10-09T16:12:37;26.60;95.30
38784;DHT22;24531;45.502;12.238;2023-10-09T16:15:03;26.50;95.50
38784;DHT22;24531;45.502;12.238;2023-10-09T16:17:31;26.50;95.60
38784;DHT22;24531;45.502;12.238;2023-10-09T16:19:57;26.40;95.80
38784;DHT22;24531;45.502;12.238;2023-10-09T16:22:23;26.40;95.90
38784;DHT22;24531;45.502;12.238;2023-10-09T16:24:50;26.40;96.00